sensor_id;sensor_type;location;lat;lon;timestamp;P1;durP1;ratioP1;P2;durP2;ratioP2
24439;SDS011;12618;54.386;18.394;2022-09-09T00:04:05;3.95;;;2.75;;
24439;SDS011;12618;54.386;18.394;2022-09-09T00:06:45;3.98;;;2.30;;
24439;SDS011;12618;54.386;18.394;2022-09-09T00:09:18;3.72;;;2.25;;
24439;SDS011;12618;54.386;18.394;2022-09-09T00:14:23;6.12;;;2.22;;
24439;SDS011;12618;54.386;18.394;2022-09-09T00:16:55;4.75;;;2.37;;
24439;SDS011;12618;54.386;18.394;2022-09-09T00:19:39;4.92;;;2.42;;
24439;SDS011;12618;54.386;18.394;2022-09-09T00:22:19;4.35;;;2.12;;
24439;SDS011;12618;54.386;18.394;2022-09-09T00:24:48;6.95;;;2.58;;
24439;SDS011;12618;54.386;18.394;2022-09-09T00:27:21;3.98;;;2.37;;
24439;SDS011;12618;54.386;18.394;2022-09-09T00:30:03;4.35;;;2.30;;
24439;SDS011;12618;54.386;18.394;2022-09-09T00:32:32;8.80;;;2.08;;
24439;SDS011;12618;54.386;18.394;2022-09-09T00:35:25;5.33;;;2.00;;
24439;SDS011;12618;54.386;18.394;2022-09-09T00:38:00;4.25;;;2.02;;
24439;SDS011;12618;54.386;18.394;2022-09-09T00:46:08;8.60;;;2.17;;
24439;SDS011;12618;54.386;18.394;2022-09-09T00:48:41;6.67;;;2.42;;
24439;SDS011;12618;54.386;18.394;2022-09-09T00:51:14;4.90;;;2.10;;
24439;SDS011;12618;54.386;18.394;2022-09-09T00:56:34;8.03;;;2.30;;
24439;SDS011;12618;54.386;18.394;2022-09-09T00:59:10;6.22;;;2.60;;
24439;SDS011;12618;54.386;18.394;2022-09-09T01:01:38;5.08;;;2.25;;
24439;SDS011;12618;54.386;18.394;2022-09-09T01:04:12;4.10;;;2.20;;
24439;SDS011;12618;54.386;18.394;2022-09-09T01:06:42;5.85;;;1.95;;
24439;SDS011;12618;54.386;18.394;2022-09-09T01:09:38;7.45;;;2.25;;
24439;SDS011;12618;54.386;18.394;2022-09-09T01:12:12;4.42;;;2.20;;
24439;SDS011;12618;54.386;18.394;2022-09-09T01:17:27;4.65;;;2.35;;
24439;SDS011;12618;54.386;18.394;2022-09-09T01:27:39;5.10;;;2.37;;
24439;SDS011;12618;54.386;18.394;2022-09-09T01:30:12;4.08;;;2.15;;
24439;SDS011;12618;54.386;18.394;2022-09-09T01:32:44;4.25;;;2.20;;
24439;SDS011;12618;54.386;18.394;2022-09-09T01:35:22;3.67;;;2.20;;
24439;SDS011;12618;54.386;18.394;2022-09-09T01:37:49;5.10;;;2.27;;
24439;SDS011;12618;54.386;18.394;2022-09-09T01:40:21;5.03;;;2.20;;
24439;SDS011;12618;54.386;18.394;2022-09-09T01:42:52;5.05;;;2.47;;
24439;SDS011;12618;54.386;18.394;2022-09-09T01:45:23;2.35;;;1.90;;
24439;SDS011;12618;54.386;18.394;2022-09-09T01:47:54;4.75;;;2.37;;
24439;SDS011;12618;54.386;18.394;2022-09-09T01:50:25;6.80;;;2.20;;
24439;SDS011;12618;54.386;18.394;2022-09-09T01:52:56;5.90;;;2.35;;
24439;SDS011;12618;54.386;18.394;2022-09-09T01:55:40;2.77;;;2.00;;
24439;SDS011;12618;54.386;18.394;2022-09-09T02:00:47;4.10;;;2.22;;
24439;SDS011;12618;54.386;18.394;2022-09-09T02:03:21;3.22;;;2.00;;
24439;SDS011;12618;54.386;18.394;2022-09-09T02:05:58;4.70;;;2.72;;
24439;SDS011;12618;54.386;18.394;2022-09-09T02:11:11;3.05;;;2.20;;
24439;SDS011;12618;54.386;18.394;2022-09-09T02:13:41;4.25;;;2.37;;
24439;SDS011;12618;54.386;18.394;2022-09-09T02:19:13;3.85;;;2.35;;
24439;SDS011;12618;54.386;18.394;2022-09-09T02:21:44;4.70;;;2.08;;
24439;SDS011;12618;54.386;18.394;2022-09-09T02:24:15;4.30;;;2.30;;
24439;SDS011;12618;54.386;18.394;2022-09-09T02:26:46;3.85;;;2.37;;
24439;SDS011;12618;54.386;18.394;2022-09-09T02:29:29;4.20;;;2.25;;
24439;SDS011;12618;54.386;18.394;2022-09-09T02:32:01;7.78;;;2.05;;
24439;SDS011;12618;54.386;18.394;2022-09-09T02:34:34;5.58;;;2.30;;
24439;SDS011;12618;54.386;18.394;2022-09-09T02:37:06;7.17;;;2.30;;
24439;SDS011;12618;54.386;18.394;2022-09-09T02:39:38;7.65;;;2.40;;
24439;SDS011;12618;54.386;18.394;2022-09-09T02:42:08;5.72;;;2.40;;
24439;SDS011;12618;54.386;18.394;2022-09-09T02:44:39;6.58;;;2.10;;
24439;SDS011;12618;54.386;18.394;2022-09-09T02:50:03;5.42;;;2.33;;
24439;SDS011;12618;54.386;18.394;2022-09-09T02:55:07;7.20;;;2.60;;
24439;SDS011;12618;54.386;18.394;2022-09-09T02:57:37;5.12;;;2.35;;
24439;SDS011;12618;54.386;18.394;2022-09-09T03:00:09;7.17;;;2.47;;
24439;SDS011;12618;54.386;18.394;2022-09-09T03:02:41;5.97;;;2.75;;
24439;SDS011;12618;54.386;18.394;2022-09-09T03:05:12;5.33;;;2.42;;
24439;SDS011;12618;54.386;18.394;2022-09-09T03:07:43;4.80;;;2.52;;
24439;SDS011;12618;54.386;18.394;2022-09-09T03:10:13;3.98;;;2.40;;
24439;SDS011;12618;54.386;18.394;2022-09-09T03:12:44;5.20;;;2.65;;
24439;SDS011;12618;54.386;18.394;2022-09-09T03:15:15;3.85;;;2.67;;
24439;SDS011;12618;54.386;18.394;2022-09-09T03:17:45;3.85;;;2.67;;
24439;SDS011;12618;54.386;18.394;2022-09-09T03:20:16;6.92;;;2.67;;
24439;SDS011;12618;54.386;18.394;2022-09-09T03:22:46;5.67;;;2.52;;
24439;SDS011;12618;54.386;18.394;2022-09-09T03:25:17;6.22;;;2.50;;
24439;SDS011;12618;54.386;18.394;2022-09-09T03:27:48;3.87;;;2.60;;
24439;SDS011;12618;54.386;18.394;2022-09-09T03:30:19;4.45;;;2.37;;
24439;SDS011;12618;54.386;18.394;2022-09-09T03:32:49;6.65;;;3.02;;
24439;SDS011;12618;54.386;18.394;2022-09-09T03:35:20;5.25;;;2.75;;
24439;SDS011;12618;54.386;18.394;2022-09-09T03:37:50;7.28;;;3.10;;
24439;SDS011;12618;54.386;18.394;2022-09-09T03:40:21;5.00;;;3.10;;
24439;SDS011;12618;54.386;18.394;2022-09-09T03:42:51;5.10;;;3.00;;
24439;SDS011;12618;54.386;18.394;2022-09-09T03:45:22;8.98;;;3.35;;
24439;SDS011;12618;54.386;18.394;2022-09-09T03:47:52;4.42;;;3.33;;
24439;SDS011;12618;54.386;18.394;2022-09-09T03:50:24;9.73;;;4.00;;
24439;SDS011;12618;54.386;18.394;2022-09-09T03:52:54;9.25;;;4.17;;
24439;SDS011;12618;54.386;18.394;2022-09-09T03:55:25;23.18;;;5.17;;
24439;SDS011;12618;54.386;18.394;2022-09-09T03:57:55;8.58;;;4.78;;
24439;SDS011;12618;54.386;18.394;2022-09-09T04:00:25;7.83;;;5.08;;
24439;SDS011;12618;54.386;18.394;2022-09-09T04:02:56;8.08;;;4.90;;
24439;SDS011;12618;54.386;18.394;2022-09-09T04:05:28;9.13;;;5.22;;
24439;SDS011;12618;54.386;18.394;2022-09-09T04:07:58;7.50;;;5.37;;
24439;SDS011;12618;54.386;18.394;2022-09-09T04:10:29;10.05;;;5.80;;
24439;SDS011;12618;54.386;18.394;2022-09-09T04:13:00;13.53;;;5.58;;
24439;SDS011;12618;54.386;18.394;2022-09-09T04:15:30;11.95;;;6.12;;
24439;SDS011;12618;54.386;18.394;2022-09-09T04:18:01;10.53;;;5.55;;
24439;SDS011;12618;54.386;18.394;2022-09-09T04:20:32;10.72;;;6.40;;
24439;SDS011;12618;54.386;18.394;2022-09-09T04:23:03;7.97;;;6.03;;
24439;SDS011;12618;54.386;18.394;2022-09-09T04:25:33;13.45;;;6.62;;
24439;SDS011;12618;54.386;18.394;2022-09-09T04:28:04;10.53;;;6.20;;
24439;SDS011;12618;54.386;18.394;2022-09-09T04:30:34;8.10;;;5.72;;
24439;SDS011;12618;54.386;18.394;2022-09-09T04:33:06;7.62;;;5.28;;
24439;SDS011;12618;54.386;18.394;2022-09-09T04:35:36;9.93;;;5.45;;
24439;SDS011;12618;54.386;18.394;2022-09-09T04:38:08;10.78;;;5.40;;
24439;SDS011;12618;54.386;18.394;2022-09-09T04:40:41;8.55;;;5.40;;
24439;SDS011;12618;54.386;18.394;2022-09-09T04:43:13;9.95;;;6.20;;
24439;SDS011;12618;54.386;18.394;2022-09-09T04:45:46;9.83;;;5.83;;
24439;SDS011;12618;54.386;18.394;2022-09-09T04:48:17;9.23;;;6.17;;
24439;SDS011;12618;54.386;18.394;2022-09-09T04:51:20;12.63;;;6.40;;
24439;SDS011;12618;54.386;18.394;2022-09-09T04:53:25;9.85;;;6.62;;
24439;SDS011;12618;54.386;18.394;2022-09-09T04:56:01;10.35;;;6.55;;
24439;SDS011;12618;54.386;18.394;2022-09-09T04:58:32;9.03;;;6.20;;
24439;SDS011;12618;54.386;18.394;2022-09-09T05:01:03;10.80;;;6.70;;
24439;SDS011;12618;54.386;18.394;2022-09-09T05:03:34;9.70;;;6.60;;
24439;SDS011;12618;54.386;18.394;2022-09-09T05:06:09;7.78;;;5.95;;
24439;SDS011;12618;54.386;18.394;2022-09-09T05:08:40;9.03;;;6.55;;
24439;SDS011;12618;54.386;18.394;2022-09-09T05:11:17;10.82;;;6.47;;
24439;SDS011;12618;54.386;18.394;2022-09-09T05:13:48;10.30;;;6.58;;
24439;SDS011;12618;54.386;18.394;2022-09-09T05:16:20;8.98;;;6.70;;
24439;SDS011;12618;54.386;18.394;2022-09-09T05:18:51;7.97;;;7.17;;
24439;SDS011;12618;54.386;18.394;2022-09-09T05:21:22;10.18;;;6.85;;
24439;SDS011;12618;54.386;18.394;2022-09-09T05:23:55;8.78;;;6.62;;
24439;SDS011;12618;54.386;18.394;2022-09-09T05:26:25;9.03;;;6.25;;
24439;SDS011;12618;54.386;18.394;2022-09-09T05:28:56;11.10;;;6.70;;
24439;SDS011;12618;54.386;18.394;2022-09-09T05:31:29;9.55;;;6.17;;
24439;SDS011;12618;54.386;18.394;2022-09-09T05:34:00;9.15;;;6.50;;
24439;SDS011;12618;54.386;18.394;2022-09-09T05:36:31;11.20;;;6.17;;
24439;SDS011;12618;54.386;18.394;2022-09-09T05:39:01;11.03;;;6.15;;
24439;SDS011;12618;54.386;18.394;2022-09-09T05:41:31;6.50;;;5.72;;
24439;SDS011;12618;54.386;18.394;2022-09-09T05:44:03;8.83;;;5.72;;
24439;SDS011;12618;54.386;18.394;2022-09-09T05:46:33;7.60;;;5.58;;
24439;SDS011;12618;54.386;18.394;2022-09-09T05:49:04;9.18;;;5.80;;
24439;SDS011;12618;54.386;18.394;2022-09-09T05:51:35;7.45;;;6.30;;
24439;SDS011;12618;54.386;18.394;2022-09-09T05:54:06;9.13;;;6.00;;
24439;SDS011;12618;54.386;18.394;2022-09-09T05:56:36;7.92;;;6.55;;
24439;SDS011;12618;54.386;18.394;2022-09-09T05:59:06;9.55;;;6.33;;
24439;SDS011;12618;54.386;18.394;2022-09-09T06:01:37;7.90;;;6.10;;
24439;SDS011;12618;54.386;18.394;2022-09-09T06:04:10;6.78;;;5.65;;
24439;SDS011;12618;54.386;18.394;2022-09-09T06:06:40;8.63;;;5.87;;
24439;SDS011;12618;54.386;18.394;2022-09-09T06:09:14;9.30;;;6.72;;
24439;SDS011;12618;54.386;18.394;2022-09-09T06:11:45;9.93;;;6.87;;
24439;SDS011;12618;54.386;18.394;2022-09-09T06:14:16;8.10;;;6.58;;
24439;SDS011;12618;54.386;18.394;2022-09-09T06:16:48;8.38;;;7.12;;
24439;SDS011;12618;54.386;18.394;2022-09-09T06:19:19;7.10;;;6.12;;
24439;SDS011;12618;54.386;18.394;2022-09-09T06:21:50;8.00;;;6.22;;
24439;SDS011;12618;54.386;18.394;2022-09-09T06:24:21;8.43;;;6.55;;
24439;SDS011;12618;54.386;18.394;2022-09-09T06:26:52;7.78;;;6.90;;
24439;SDS011;12618;54.386;18.394;2022-09-09T06:29:24;8.75;;;5.28;;
24439;SDS011;12618;54.386;18.394;2022-09-09T06:31:54;7.53;;;4.92;;
24439;SDS011;12618;54.386;18.394;2022-09-09T06:34:25;6.97;;;5.47;;
24439;SDS011;12618;54.386;18.394;2022-09-09T06:36:55;8.10;;;4.78;;
24439;SDS011;12618;54.386;18.394;2022-09-09T06:39:27;6.05;;;5.22;;
24439;SDS011;12618;54.386;18.394;2022-09-09T06:41:58;8.88;;;5.60;;
24439;SDS011;12618;54.386;18.394;2022-09-09T06:44:28;6.83;;;4.72;;
24439;SDS011;12618;54.386;18.394;2022-09-09T06:47:01;8.65;;;5.83;;
24439;SDS011;12618;54.386;18.394;2022-09-09T06:49:31;9.63;;;5.50;;
24439;SDS011;12618;54.386;18.394;2022-09-09T06:52:02;8.38;;;5.45;;
24439;SDS011;12618;54.386;18.394;2022-09-09T06:54:32;7.50;;;5.05;;
24439;SDS011;12618;54.386;18.394;2022-09-09T06:57:03;7.15;;;5.17;;
24439;SDS011;12618;54.386;18.394;2022-09-09T06:59:36;8.13;;;6.15;;
24439;SDS011;12618;54.386;18.394;2022-09-09T07:02:07;7.35;;;5.25;;
24439;SDS011;12618;54.386;18.394;2022-09-09T07:04:37;6.12;;;5.47;;
24439;SDS011;12618;54.386;18.394;2022-09-09T07:07:08;7.58;;;5.30;;
24439;SDS011;12618;54.386;18.394;2022-09-09T07:09:39;10.20;;;5.20;;
24439;SDS011;12618;54.386;18.394;2022-09-09T07:12:11;10.03;;;5.95;;
24439;SDS011;12618;54.386;18.394;2022-09-09T07:14:42;6.42;;;5.53;;
24439;SDS011;12618;54.386;18.394;2022-09-09T07:17:16;7.30;;;5.47;;
24439;SDS011;12618;54.386;18.394;2022-09-09T07:19:46;8.83;;;5.70;;
24439;SDS011;12618;54.386;18.394;2022-09-09T07:22:17;8.50;;;6.10;;
24439;SDS011;12618;54.386;18.394;2022-09-09T07:24:48;9.38;;;6.75;;
24439;SDS011;12618;54.386;18.394;2022-09-09T07:27:19;16.95;;;7.35;;
24439;SDS011;12618;54.386;18.394;2022-09-09T07:29:50;10.80;;;6.40;;
24439;SDS011;12618;54.386;18.394;2022-09-09T07:32:20;7.58;;;6.15;;
24439;SDS011;12618;54.386;18.394;2022-09-09T07:34:51;8.78;;;6.08;;
24439;SDS011;12618;54.386;18.394;2022-09-09T07:37:21;7.78;;;6.25;;
24439;SDS011;12618;54.386;18.394;2022-09-09T07:39:52;10.25;;;6.08;;
24439;SDS011;12618;54.386;18.394;2022-09-09T07:42:22;9.35;;;5.95;;
24439;SDS011;12618;54.386;18.394;2022-09-09T07:44:52;7.87;;;5.62;;
24439;SDS011;12618;54.386;18.394;2022-09-09T07:47:25;7.78;;;5.80;;
24439;SDS011;12618;54.386;18.394;2022-09-09T07:49:55;7.60;;;5.50;;
24439;SDS011;12618;54.386;18.394;2022-09-09T07:52:26;8.53;;;5.85;;
24439;SDS011;12618;54.386;18.394;2022-09-09T07:54:57;14.63;;;6.65;;
24439;SDS011;12618;54.386;18.394;2022-09-09T07:57:28;6.42;;;5.65;;
24439;SDS011;12618;54.386;18.394;2022-09-09T08:00:00;11.03;;;6.53;;
24439;SDS011;12618;54.386;18.394;2022-09-09T08:02:32;10.60;;;6.87;;
24439;SDS011;12618;54.386;18.394;2022-09-09T08:05:02;8.38;;;6.37;;
24439;SDS011;12618;54.386;18.394;2022-09-09T08:07:36;9.07;;;6.37;;
24439;SDS011;12618;54.386;18.394;2022-09-09T08:10:06;8.58;;;6.47;;
24439;SDS011;12618;54.386;18.394;2022-09-09T08:12:37;39.40;;;8.58;;
24439;SDS011;12618;54.386;18.394;2022-09-09T08:15:07;8.48;;;7.58;;
24439;SDS011;12618;54.386;18.394;2022-09-09T08:17:38;9.75;;;6.72;;
24439;SDS011;12618;54.386;18.394;2022-09-09T08:20:08;7.42;;;6.10;;
24439;SDS011;12618;54.386;18.394;2022-09-09T08:22:39;8.73;;;6.28;;
24439;SDS011;12618;54.386;18.394;2022-09-09T08:25:09;11.30;;;7.70;;
24439;SDS011;12618;54.386;18.394;2022-09-09T08:27:40;16.40;;;7.53;;
24439;SDS011;12618;54.386;18.394;2022-09-09T08:30:11;8.73;;;6.37;;
24439;SDS011;12618;54.386;18.394;2022-09-09T08:32:41;8.63;;;6.92;;
24439;SDS011;12618;54.386;18.394;2022-09-09T08:35:13;7.53;;;6.10;;
24439;SDS011;12618;54.386;18.394;2022-09-09T08:37:43;8.30;;;6.33;;
24439;SDS011;12618;54.386;18.394;2022-09-09T08:40:17;10.40;;;5.78;;
24439;SDS011;12618;54.386;18.394;2022-09-09T08:42:47;7.92;;;5.10;;
24439;SDS011;12618;54.386;18.394;2022-09-09T08:45:36;10.80;;;5.70;;
24439;SDS011;12618;54.386;18.394;2022-09-09T08:48:18;10.48;;;5.65;;
24439;SDS011;12618;54.386;18.394;2022-09-09T08:50:44;7.67;;;5.60;;
24439;SDS011;12618;54.386;18.394;2022-09-09T08:53:19;10.70;;;7.25;;
24439;SDS011;12618;54.386;18.394;2022-09-09T08:55:51;5.60;;;5.00;;
24439;SDS011;12618;54.386;18.394;2022-09-09T08:58:30;5.97;;;5.10;;
24439;SDS011;12618;54.386;18.394;2022-09-09T09:06:26;8.20;;;6.15;;
24439;SDS011;12618;54.386;18.394;2022-09-09T09:09:01;7.45;;;6.00;;
24439;SDS011;12618;54.386;18.394;2022-09-09T09:11:38;7.70;;;6.12;;
24439;SDS011;12618;54.386;18.394;2022-09-09T09:14:10;6.58;;;5.62;;
24439;SDS011;12618;54.386;18.394;2022-09-09T09:19:14;6.25;;;5.42;;
24439;SDS011;12618;54.386;18.394;2022-09-09T09:24:42;7.87;;;5.37;;
24439;SDS011;12618;54.386;18.394;2022-09-09T09:27:14;7.17;;;5.70;;
24439;SDS011;12618;54.386;18.394;2022-09-09T09:29:45;6.67;;;5.62;;
24439;SDS011;12618;54.386;18.394;2022-09-09T09:32:18;7.62;;;6.10;;
24439;SDS011;12618;54.386;18.394;2022-09-09T09:34:54;7.92;;;5.95;;
24439;SDS011;12618;54.386;18.394;2022-09-09T09:37:24;7.17;;;5.47;;
24439;SDS011;12618;54.386;18.394;2022-09-09T09:39:53;5.72;;;5.12;;
24439;SDS011;12618;54.386;18.394;2022-09-09T09:42:24;6.03;;;5.42;;
24439;SDS011;12618;54.386;18.394;2022-09-09T09:44:55;6.17;;;5.58;;
24439;SDS011;12618;54.386;18.394;2022-09-09T09:47:26;8.20;;;5.95;;
24439;SDS011;12618;54.386;18.394;2022-09-09T09:49:57;6.50;;;5.80;;
24439;SDS011;12618;54.386;18.394;2022-09-09T09:52:29;5.83;;;5.33;;
24439;SDS011;12618;54.386;18.394;2022-09-09T09:55:02;9.65;;;6.10;;
24439;SDS011;12618;54.386;18.394;2022-09-09T09:57:32;7.47;;;6.60;;
24439;SDS011;12618;54.386;18.394;2022-09-09T10:00:12;6.83;;;6.17;;
24439;SDS011;12618;54.386;18.394;2022-09-09T10:02:39;8.35;;;6.47;;
24439;SDS011;12618;54.386;18.394;2022-09-09T10:05:15;6.78;;;6.08;;
24439;SDS011;12618;54.386;18.394;2022-09-09T10:07:46;8.48;;;5.47;;
24439;SDS011;12618;54.386;18.394;2022-09-09T10:10:20;5.50;;;4.95;;
24439;SDS011;12618;54.386;18.394;2022-09-09T10:15:38;7.60;;;6.62;;
24439;SDS011;12618;54.386;18.394;2022-09-09T10:23:48;10.05;;;7.50;;
24439;SDS011;12618;54.386;18.394;2022-09-09T10:29:19;10.35;;;8.08;;
24439;SDS011;12618;54.386;18.394;2022-09-09T10:42:38;9.55;;;7.72;;
24439;SDS011;12618;54.386;18.394;2022-09-09T10:45:17;9.30;;;8.30;;
24439;SDS011;12618;54.386;18.394;2022-09-09T10:55:56;9.08;;;7.90;;
24439;SDS011;12618;54.386;18.394;2022-09-09T10:58:35;9.93;;;8.38;;
24439;SDS011;12618;54.386;18.394;2022-09-09T11:01:09;8.85;;;7.85;;
24439;SDS011;12618;54.386;18.394;2022-09-09T11:03:40;10.63;;;8.20;;
24439;SDS011;12618;54.386;18.394;2022-09-09T11:06:15;9.38;;;7.70;;
24439;SDS011;12618;54.386;18.394;2022-09-09T11:08:46;8.18;;;7.12;;
24439;SDS011;12618;54.386;18.394;2022-09-09T11:11:20;8.18;;;6.70;;
24439;SDS011;12618;54.386;18.394;2022-09-09T11:19:09;7.37;;;6.55;;
24439;SDS011;12618;54.386;18.394;2022-09-09T11:21:38;7.92;;;7.12;;
24439;SDS011;12618;54.386;18.394;2022-09-09T11:24:18;7.92;;;7.12;;
24439;SDS011;12618;54.386;18.394;2022-09-09T11:26:52;7.45;;;6.65;;
24439;SDS011;12618;54.386;18.394;2022-09-09T11:35:20;7.55;;;6.85;;
24439;SDS011;12618;54.386;18.394;2022-09-09T11:38:31;10.28;;;7.12;;
24439;SDS011;12618;54.386;18.394;2022-09-09T11:43:02;8.35;;;7.53;;
24439;SDS011;12618;54.386;18.394;2022-09-09T11:45:35;8.08;;;7.28;;
24439;SDS011;12618;54.386;18.394;2022-09-09T11:48:21;10.75;;;7.22;;
24439;SDS011;12618;54.386;18.394;2022-09-09T11:50:38;9.75;;;7.92;;
24439;SDS011;12618;54.386;18.394;2022-09-09T11:55:45;11.28;;;9.78;;
24439;SDS011;12618;54.386;18.394;2022-09-09T11:58:16;9.50;;;8.50;;
24439;SDS011;12618;54.386;18.394;2022-09-09T12:00:49;9.65;;;8.30;;
24439;SDS011;12618;54.386;18.394;2022-09-09T12:06:14;9.00;;;8.10;;
24439;SDS011;12618;54.386;18.394;2022-09-09T12:08:43;9.50;;;8.60;;
24439;SDS011;12618;54.386;18.394;2022-09-09T12:11:23;9.68;;;8.78;;
24439;SDS011;12618;54.386;18.394;2022-09-09T12:13:54;11.78;;;8.95;;
24439;SDS011;12618;54.386;18.394;2022-09-09T12:16:35;9.80;;;8.80;;
24439;SDS011;12618;54.386;18.394;2022-09-09T12:19:21;10.30;;;8.83;;
24439;SDS011;12618;54.386;18.394;2022-09-09T12:22:11;11.78;;;8.80;;
24439;SDS011;12618;54.386;18.394;2022-09-09T12:24:35;10.72;;;8.85;;
24439;SDS011;12618;54.386;18.394;2022-09-09T12:29:50;11.45;;;9.70;;
24439;SDS011;12618;54.386;18.394;2022-09-09T12:32:23;10.80;;;9.70;;
24439;SDS011;12618;54.386;18.394;2022-09-09T12:37:38;13.00;;;11.70;;
24439;SDS011;12618;54.386;18.394;2022-09-09T12:40:19;11.15;;;10.05;;
24439;SDS011;12618;54.386;18.394;2022-09-09T12:42:50;10.32;;;9.33;;
24439;SDS011;12618;54.386;18.394;2022-09-09T12:45:22;10.25;;;9.25;;
24439;SDS011;12618;54.386;18.394;2022-09-09T12:47:58;10.23;;;9.23;;
24439;SDS011;12618;54.386;18.394;2022-09-09T12:50:31;9.70;;;8.80;;
24439;SDS011;12618;54.386;18.394;2022-09-09T12:53:15;9.65;;;8.75;;
24439;SDS011;12618;54.386;18.394;2022-09-09T12:55:55;9.28;;;8.38;;
24439;SDS011;12618;54.386;18.394;2022-09-09T12:58:13;9.55;;;8.20;;
24439;SDS011;12618;54.386;18.394;2022-09-09T13:00:49;11.53;;;10.05;;
24439;SDS011;12618;54.386;18.394;2022-09-09T13:03:21;10.78;;;9.65;;
24439;SDS011;12618;54.386;18.394;2022-09-09T13:05:53;9.60;;;8.60;;
24439;SDS011;12618;54.386;18.394;2022-09-09T13:08:23;8.98;;;8.10;;
24439;SDS011;12618;54.386;18.394;2022-09-09T13:10:57;9.60;;;8.68;;
24439;SDS011;12618;54.386;18.394;2022-09-09T13:13:28;8.78;;;7.97;;
24439;SDS011;12618;54.386;18.394;2022-09-09T13:16:00;10.55;;;7.97;;
24439;SDS011;12618;54.386;18.394;2022-09-09T13:18:34;9.98;;;9.08;;
24439;SDS011;12618;54.386;18.394;2022-09-09T13:21:06;8.43;;;7.62;;
24439;SDS011;12618;54.386;18.394;2022-09-09T13:23:37;11.85;;;10.65;;
24439;SDS011;12618;54.386;18.394;2022-09-09T13:28:53;9.48;;;8.55;;
24439;SDS011;12618;54.386;18.394;2022-09-09T13:31:32;10.05;;;9.05;;
24439;SDS011;12618;54.386;18.394;2022-09-09T13:34:12;9.43;;;8.43;;
24439;SDS011;12618;54.386;18.394;2022-09-09T13:36:46;9.50;;;8.53;;
24439;SDS011;12618;54.386;18.394;2022-09-09T13:39:16;10.75;;;9.65;;
24439;SDS011;12618;54.386;18.394;2022-09-09T13:41:48;9.05;;;8.25;;
24439;SDS011;12618;54.386;18.394;2022-09-09T13:44:20;10.08;;;9.05;;
24439;SDS011;12618;54.386;18.394;2022-09-09T13:46:59;11.20;;;10.05;;
24439;SDS011;12618;54.386;18.394;2022-09-09T13:49:30;11.30;;;10.10;;
24439;SDS011;12618;54.386;18.394;2022-09-09T13:52:10;12.33;;;11.03;;
24439;SDS011;12618;54.386;18.394;2022-09-09T13:54:42;11.40;;;10.30;;
24439;SDS011;12618;54.386;18.394;2022-09-09T13:57:19;14.00;;;11.90;;
24439;SDS011;12618;54.386;18.394;2022-09-09T13:59:51;14.10;;;12.30;;
24439;SDS011;12618;54.386;18.394;2022-09-09T14:02:22;14.15;;;12.53;;
24439;SDS011;12618;54.386;18.394;2022-09-09T14:04:53;13.68;;;12.00;;
24439;SDS011;12618;54.386;18.394;2022-09-09T14:07:25;15.15;;;12.68;;
24439;SDS011;12618;54.386;18.394;2022-09-09T14:09:55;15.53;;;13.40;;
24439;SDS011;12618;54.386;18.394;2022-09-09T14:12:26;14.93;;;12.78;;
24439;SDS011;12618;54.386;18.394;2022-09-09T14:14:57;17.65;;;13.83;;
24439;SDS011;12618;54.386;18.394;2022-09-09T14:17:27;15.43;;;13.28;;
24439;SDS011;12618;54.386;18.394;2022-09-09T14:20:00;16.93;;;14.55;;
24439;SDS011;12618;54.386;18.394;2022-09-09T14:22:31;15.70;;;12.93;;
24439;SDS011;12618;54.386;18.394;2022-09-09T14:25:03;15.30;;;13.75;;
24439;SDS011;12618;54.386;18.394;2022-09-09T14:27:35;16.45;;;13.83;;
24439;SDS011;12618;54.386;18.394;2022-09-09T14:30:06;16.77;;;13.58;;
24439;SDS011;12618;54.386;18.394;2022-09-09T14:32:37;16.07;;;14.00;;
24439;SDS011;12618;54.386;18.394;2022-09-09T14:35:10;16.17;;;14.30;;
24439;SDS011;12618;54.386;18.394;2022-09-09T14:37:41;17.02;;;14.55;;
24439;SDS011;12618;54.386;18.394;2022-09-09T14:40:12;18.50;;;15.63;;
24439;SDS011;12618;54.386;18.394;2022-09-09T14:42:42;19.17;;;16.02;;
24439;SDS011;12618;54.386;18.394;2022-09-09T14:45:13;15.78;;;14.18;;
24439;SDS011;12618;54.386;18.394;2022-09-09T14:47:43;16.32;;;13.83;;
24439;SDS011;12618;54.386;18.394;2022-09-09T14:50:14;15.43;;;13.83;;
24439;SDS011;12618;54.386;18.394;2022-09-09T14:52:44;16.87;;;14.00;;
24439;SDS011;12618;54.386;18.394;2022-09-09T14:55:15;19.60;;;16.12;;
24439;SDS011;12618;54.386;18.394;2022-09-09T14:57:46;20.25;;;15.83;;
24439;SDS011;12618;54.386;18.394;2022-09-09T15:00:16;19.70;;;16.55;;
24439;SDS011;12618;54.386;18.394;2022-09-09T15:02:47;27.52;;;18.37;;
24439;SDS011;12618;54.386;18.394;2022-09-09T15:05:17;21.40;;;15.03;;
24439;SDS011;12618;54.386;18.394;2022-09-09T15:07:48;16.97;;;14.03;;
24439;SDS011;12618;54.386;18.394;2022-09-09T15:10:19;20.82;;;16.50;;
24439;SDS011;12618;54.386;18.394;2022-09-09T15:12:49;20.70;;;15.25;;
24439;SDS011;12618;54.386;18.394;2022-09-09T15:15:20;18.85;;;14.53;;
24439;SDS011;12618;54.386;18.394;2022-09-09T15:17:51;25.50;;;16.80;;
24439;SDS011;12618;54.386;18.394;2022-09-09T15:20:21;24.50;;;17.25;;
24439;SDS011;12618;54.386;18.394;2022-09-09T15:22:52;20.02;;;16.77;;
24439;SDS011;12618;54.386;18.394;2022-09-09T15:25:23;23.75;;;17.55;;
24439;SDS011;12618;54.386;18.394;2022-09-09T15:27:53;23.40;;;18.45;;
24439;SDS011;12618;54.386;18.394;2022-09-09T15:30:24;21.02;;;17.75;;
24439;SDS011;12618;54.386;18.394;2022-09-09T15:32:54;22.75;;;18.17;;
24439;SDS011;12618;54.386;18.394;2022-09-09T15:35:25;28.50;;;20.80;;
24439;SDS011;12618;54.386;18.394;2022-09-09T15:37:55;25.85;;;19.52;;
24439;SDS011;12618;54.386;18.394;2022-09-09T15:40:27;28.27;;;20.65;;
24439;SDS011;12618;54.386;18.394;2022-09-09T15:42:58;34.18;;;22.07;;
24439;SDS011;12618;54.386;18.394;2022-09-09T15:45:28;37.38;;;20.85;;
24439;SDS011;12618;54.386;18.394;2022-09-09T15:48:01;27.80;;;19.15;;
24439;SDS011;12618;54.386;18.394;2022-09-09T15:50:31;26.17;;;19.65;;
24439;SDS011;12618;54.386;18.394;2022-09-09T15:53:02;21.82;;;17.10;;
24439;SDS011;12618;54.386;18.394;2022-09-09T15:55:33;31.12;;;19.25;;
24439;SDS011;12618;54.386;18.394;2022-09-09T15:58:03;27.67;;;19.73;;
24439;SDS011;12618;54.386;18.394;2022-09-09T16:00:34;36.50;;;22.27;;
24439;SDS011;12618;54.386;18.394;2022-09-09T16:03:04;25.60;;;19.55;;
24439;SDS011;12618;54.386;18.394;2022-09-09T16:05:35;29.48;;;20.52;;
24439;SDS011;12618;54.386;18.394;2022-09-09T16:08:06;56.85;;;24.00;;
24439;SDS011;12618;54.386;18.394;2022-09-09T16:10:36;44.35;;;23.32;;
24439;SDS011;12618;54.386;18.394;2022-09-09T16:13:06;23.90;;;18.75;;
24439;SDS011;12618;54.386;18.394;2022-09-09T16:15:37;29.35;;;21.45;;
24439;SDS011;12618;54.386;18.394;2022-09-09T16:18:08;34.85;;;22.30;;
24439;SDS011;12618;54.386;18.394;2022-09-09T16:20:38;40.92;;;20.75;;
24439;SDS011;12618;54.386;18.394;2022-09-09T16:23:11;41.28;;;21.00;;
24439;SDS011;12618;54.386;18.394;2022-09-09T16:25:41;42.30;;;22.67;;
24439;SDS011;12618;54.386;18.394;2022-09-09T16:28:12;29.25;;;20.57;;
24439;SDS011;12618;54.386;18.394;2022-09-09T16:30:43;37.00;;;21.60;;
24439;SDS011;12618;54.386;18.394;2022-09-09T16:33:13;35.08;;;22.73;;
24439;SDS011;12618;54.386;18.394;2022-09-09T16:35:47;28.80;;;20.88;;
24439;SDS011;12618;54.386;18.394;2022-09-09T16:38:19;31.65;;;21.52;;
24439;SDS011;12618;54.386;18.394;2022-09-09T16:40:50;34.53;;;22.13;;